Memphis, Nebraska
Current Conditions -  °F | °C
As of 7:35 PM on Monday 24 Nov 2014 (Local Time) from KAHQ Reporting Station
Clear Clear  
Wind Chill: 20°   Ceiling: Unl
Heat Index: 29°   Visibility: 10mi
Dew Point:   Wind: 12mph
Humidity: 43%   Direction: 310°NW
Pressure: 30.02"   Gusts: NA
Location:  41.1°N, 96.43°W
Report Text: KAHQ 250135Z AUTO 31010KT 10SM CLR M01/M13 A3002 RMK AO2 T10151127
Loading
Personal Weather Stations






























Interactive Weather Map New forecast layout! Learn more

10-Day Weather Forecast

Advertisements
Track Severe Weather on mobile